Time;durP1;ratioP1;P1;durP2;ratioP2;P2;SDS_P1;SDS_P2;PMS_P1;PMS_P2;Temp;Humidity;BMP_temperature;BMP_pressure;BME280_temperature;BME280_humidity;BME280_pressure;Samples;Min_cycle;Max_cycle;Signal;HPM_P1;HPM_P2
2022/01/27 00:05:01;;;;;;;22.27;12.77;;;-0.30;99.90;;;;;;5089121;28;20228;-85
2022/01/27 00:07:27;;;;;;;22.10;12.60;;;-0.30;99.90;;;;;;5102267;28;20203;-85
2022/01/27 00:12:48;;;;;;;19.07;12.17;;;-0.30;99.90;;;;;;5045978;28;20758;-86
2022/01/27 00:15:16;;;;;;;20.17;12.90;;;-0.40;99.90;;;;;;5087870;28;20191;-86
2022/01/27 00:17:55;;;;;;;22.53;12.90;;;-0.40;99.90;;;;;;5084166;28;20203;-86
2022/01/27 00:20:21;;;;;;;21.17;13.43;;;-0.40;99.90;;;;;;5072947;28;20187;-86
2022/01/27 00:22:47;;;;;;;21.20;12.50;;;-0.30;99.90;;;;;;5100377;28;20203;-86
2022/01/27 00:25:13;;;;;;;21.93;13.50;;;-0.50;99.90;;;;;;5103871;28;20252;-86
2022/01/27 00:27:39;;;;;;;24.60;13.37;;;-0.50;99.90;;;;;;5104259;28;20223;-86
2022/01/27 00:30:07;;;;;;;20.50;13.33;;;-0.50;99.90;;;;;;5083095;28;20192;-85
2022/01/27 00:32:33;;;;;;;23.00;13.40;;;-0.40;99.90;;;;;;5084469;28;20191;-86
2022/01/27 00:34:59;;;;;;;20.50;13.23;;;-0.50;99.90;;;;;;5083067;28;20210;-86
2022/01/27 00:37:26;;;;;;;24.83;13.73;;;-0.50;99.90;;;;;;5101201;28;20819;-85
2022/01/27 00:39:52;;;;;;;20.30;13.60;;;-0.50;99.90;;;;;;5081392;28;20196;-86
2022/01/27 00:42:18;;;;;;;25.50;15.00;;;-0.40;99.90;;;;;;5074292;28;20191;-85
2022/01/27 00:44:44;;;;;;;23.30;14.13;;;-0.40;99.90;;;;;;5102254;28;20183;-85
2022/01/27 00:47:10;;;;;;;24.73;14.50;;;-0.50;99.90;;;;;;5103428;28;20234;-86
2022/01/27 00:49:37;;;;;;;26.17;13.70;;;-0.50;99.90;;;;;;5093721;28;20260;-86
2022/01/27 00:52:08;;;;;;;24.97;13.87;;;-0.40;99.90;;;;;;5103143;28;20277;-86
2022/01/27 00:54:34;;;;;;;24.13;13.47;;;-0.40;99.90;;;;;;5100881;28;20198;-86
2022/01/27 00:57:09;;;;;;;25.97;15.17;;;-0.50;99.90;;;;;;5101266;28;20405;-86
2022/01/27 01:07:53;;;;;;;29.13;14.60;;;-0.40;99.90;;;;;;5032284;28;20255;-86
2022/01/27 01:15:36;;;;;;;23.67;15.37;;;-0.50;99.90;;;;;;5102960;28;20209;-86
2022/01/27 01:18:17;;;;;;;24.60;14.60;;;-0.50;99.90;;;;;;5093242;28;20211;-86
2022/01/27 01:31:53;;;;;;;23.57;14.07;;;-0.30;99.90;;;;;;5083512;28;20230;-85
2022/01/27 01:34:22;;;;;;;26.40;15.07;;;-0.40;99.90;;;;;;5095193;28;20163;-86
2022/01/27 01:36:58;;;;;;;24.97;14.63;;;-0.40;99.90;;;;;;5097335;28;20250;-85
2022/01/27 01:39:28;;;;;;;25.83;15.47;;;-0.40;99.90;;;;;;5089747;28;20207;-86
2022/01/27 01:41:54;;;;;;;25.50;14.47;;;-0.40;99.90;;;;;;5089901;28;20172;-85
2022/01/27 01:44:22;;;;;;;25.43;14.37;;;-0.40;99.90;;;;;;5074787;28;20222;-86
2022/01/27 01:46:48;;;;;;;29.70;15.20;;;-0.30;99.90;;;;;;5090501;28;20217;-86
2022/01/27 01:49:15;;;;;;;29.03;15.67;;;-0.40;99.90;;;;;;5096211;28;20213;-86
2022/01/27 01:51:43;;;;;;;26.63;15.20;;;-0.30;99.90;;;;;;5097434;28;20187;-86
2022/01/27 01:54:10;;;;;;;29.97;15.73;;;-0.30;99.90;;;;;;5066085;28;20214;-86
2022/01/27 01:56:41;;;;;;;27.20;15.00;;;-0.40;99.90;;;;;;5083690;28;20215;-86
2022/01/27 01:59:06;;;;;;;27.67;15.33;;;-0.30;99.90;;;;;;5085600;28;20207;-86
2022/01/27 02:01:33;;;;;;;25.93;14.67;;;-0.50;99.90;;;;;;5088247;28;20186;-86
2022/01/27 02:04:04;;;;;;;23.53;15.67;;;-0.40;99.90;;;;;;5079821;28;20211;-85
2022/01/27 02:06:36;;;;;;;28.43;16.10;;;-0.40;99.90;;;;;;5068067;28;20207;-86
2022/01/27 02:19:43;;;;;;;26.40;13.93;;;-0.40;99.90;;;;;;5082636;28;20233;-86
2022/01/27 02:22:09;;;;;;;28.70;15.97;;;-0.50;99.90;;;;;;5089559;28;20210;-86
2022/01/27 02:24:36;;;;;;;24.30;14.30;;;-0.50;99.90;;;;;;5085380;28;20182;-86
2022/01/27 02:27:04;;;;;;;28.90;14.83;;;-0.50;99.90;;;;;;5073741;28;20256;-86
2022/01/27 02:29:30;;;;;;;24.70;14.10;;;-0.50;99.90;;;;;;5084881;28;20203;-85
2022/01/27 02:31:58;;;;;;;30.67;15.40;;;-0.50;99.90;;;;;;5084498;28;20195;-86
2022/01/27 02:34:25;;;;;;;25.73;15.27;;;-0.50;99.90;;;;;;5073617;28;20218;-86
2022/01/27 02:36:50;;;;;;;25.57;14.80;;;-0.50;99.90;;;;;;5091850;28;20190;-86
2022/01/27 02:39:17;;;;;;;26.57;14.47;;;-0.50;99.90;;;;;;5084733;28;20207;-86
2022/01/27 02:41:51;;;;;;;24.23;16.07;;;-0.60;99.90;;;;;;5061417;28;20580;-86
2022/01/27 02:44:37;;;;;;;24.60;14.70;;;-0.50;99.90;;;;;;5081939;28;20175;-86
2022/01/27 02:47:03;;;;;;;25.03;16.33;;;-0.50;99.90;;;;;;5083465;28;20219;-86
2022/01/27 02:49:29;;;;;;;27.97;15.73;;;-0.50;99.90;;;;;;5083886;28;20206;-86
2022/01/27 02:51:55;;;;;;;24.40;14.70;;;-0.50;99.90;;;;;;5088278;28;20187;-86
2022/01/27 02:54:21;;;;;;;33.30;17.37;;;-0.50;99.90;;;;;;5087723;28;20286;-86
2022/01/27 02:56:47;;;;;;;29.03;16.80;;;-0.50;99.90;;;;;;5067197;28;20245;-86
2022/01/27 02:59:17;;;;;;;30.47;14.83;;;-0.50;99.90;;;;;;5080123;28;20311;-86
2022/01/27 03:01:48;;;;;;;26.90;15.50;;;-0.50;99.90;;;;;;5083720;28;20621;-86
2022/01/27 03:04:14;;;;;;;31.20;17.23;;;-0.50;99.90;;;;;;5091242;28;20218;-85
2022/01/27 03:06:41;;;;;;;27.17;14.97;;;-0.60;99.90;;;;;;5095499;28;20188;-86
2022/01/27 03:09:06;;;;;;;26.23;15.10;;;-0.60;99.90;;;;;;5088164;28;20222;-86
2022/01/27 03:11:42;;;;;;;27.97;15.07;;;-0.60;99.90;;;;;;5088069;28;20411;-86
2022/01/27 03:14:08;;;;;;;31.83;17.73;;;-0.60;99.90;;;;;;5084037;28;20195;-85
2022/01/27 03:16:34;;;;;;;28.97;16.33;;;-0.50;99.90;;;;;;5083327;28;20205;-85
2022/01/27 03:19:00;;;;;;;29.70;16.07;;;-0.60;99.90;;;;;;5089934;28;20297;-85
2022/01/27 03:21:26;;;;;;;28.13;15.43;;;-0.60;99.90;;;;;;5064790;28;20226;-86
2022/01/27 03:23:52;;;;;;;32.90;15.97;;;-0.60;99.90;;;;;;5090589;28;20241;-86
2022/01/27 03:26:18;;;;;;;28.83;16.03;;;-0.60;99.90;;;;;;5091719;28;20574;-87
2022/01/27 03:28:46;;;;;;;32.00;18.20;;;-0.80;99.90;;;;;;5089607;28;20215;-85
2022/01/27 03:31:12;;;;;;;28.20;16.87;;;-0.80;99.90;;;;;;5092992;28;20190;-85
2022/01/27 03:33:39;;;;;;;30.10;15.70;;;-0.80;99.90;;;;;;5083936;28;20195;-85
2022/01/27 03:36:05;;;;;;;29.97;16.33;;;-0.80;99.90;;;;;;5064615;28;20192;-85
2022/01/27 03:38:31;;;;;;;27.57;17.00;;;-0.80;99.90;;;;;;5086258;28;20243;-86
2022/01/27 03:40:58;;;;;;;31.33;16.40;;;-0.90;99.90;;;;;;5085175;28;20191;-85
2022/01/27 03:43:24;;;;;;;28.63;16.50;;;-0.90;99.90;;;;;;5089261;28;20203;-85
2022/01/27 03:45:50;;;;;;;29.33;16.90;;;-0.80;99.90;;;;;;5084982;28;20196;-85
2022/01/27 03:48:16;;;;;;;30.03;16.93;;;-1.00;99.90;;;;;;5086612;28;20881;-85
2022/01/27 03:50:41;;;;;;;28.50;16.00;;;-1.00;99.90;;;;;;5088181;28;20195;-85
2022/01/27 03:53:07;;;;;;;25.03;15.27;;;-0.90;99.90;;;;;;5084729;28;20598;-86
2022/01/27 03:55:33;;;;;;;29.40;15.87;;;-0.90;99.90;;;;;;5084325;28;20875;-85
2022/01/27 03:57:59;;;;;;;30.20;16.07;;;-0.80;99.90;;;;;;5085266;28;20686;-85
2022/01/27 04:00:24;;;;;;;26.37;16.43;;;-0.80;99.90;;;;;;5088464;28;20259;-85
2022/01/27 04:03:01;;;;;;;26.70;15.63;;;-0.80;99.90;;;;;;5088252;28;20183;-86
2022/01/27 04:05:33;;;;;;;26.00;16.17;;;-0.80;99.90;;;;;;5100218;28;20171;-86
2022/01/27 04:07:59;;;;;;;29.63;16.07;;;-0.80;99.90;;;;;;5079007;28;20223;-86
2022/01/27 04:10:24;;;;;;;28.40;15.87;;;-0.80;99.90;;;;;;5068414;28;20608;-85
2022/01/27 04:12:50;;;;;;;32.63;16.47;;;-0.70;99.90;;;;;;5082378;28;20195;-86
2022/01/27 04:15:16;;;;;;;33.67;16.80;;;-0.80;99.90;;;;;;5100398;28;20285;-86
2022/01/27 04:17:42;;;;;;;28.43;17.10;;;-0.90;99.90;;;;;;5074062;28;20806;-85
2022/01/27 04:20:08;;;;;;;29.50;17.00;;;-0.90;99.90;;;;;;5085176;28;20241;-86
2022/01/27 04:22:33;;;;;;;30.17;16.80;;;-0.90;99.90;;;;;;5092341;28;20214;-85
2022/01/27 04:24:59;;;;;;;32.40;16.83;;;-1.00;99.90;;;;;;5102378;28;20191;-85
2022/01/27 04:27:30;;;;;;;30.80;16.93;;;-1.00;99.90;;;;;;5042087;28;20235;-86
2022/01/27 04:29:56;;;;;;;27.43;15.53;;;-1.00;99.90;;;;;;5093812;28;20282;-85
2022/01/27 04:32:27;;;;;;;26.60;14.73;;;-0.90;99.90;;;;;;5077061;28;20685;-85
2022/01/27 04:34:59;;;;;;;25.53;14.30;;;-0.90;99.90;;;;;;5087809;28;20192;-86
2022/01/27 04:37:26;;;;;;;24.30;15.53;;;-1.00;99.90;;;;;;5083540;28;20215;-86
2022/01/27 04:40:01;;;;;;;29.30;16.40;;;-0.90;99.90;;;;;;5069669;28;20188;-86
2022/01/27 04:45:17;;;;;;;29.53;15.63;;;-1.00;99.90;;;;;;5063211;28;20249;-85
2022/01/27 04:47:47;;;;;;;25.30;15.70;;;-0.80;99.90;;;;;;5091353;28;20242;-85
2022/01/27 04:50:13;;;;;;;24.23;14.43;;;-0.90;99.90;;;;;;5090332;28;20612;-85
2022/01/27 04:52:44;;;;;;;28.73;15.97;;;-1.00;99.90;;;;;;5085558;28;20195;-85
2022/01/27 04:55:12;;;;;;;27.57;14.13;;;-1.00;99.90;;;;;;5064908;28;20183;-86
2022/01/27 04:57:41;;;;;;;29.80;16.50;;;-1.00;99.90;;;;;;5082769;28;20290;-86
2022/01/27 05:00:09;;;;;;;29.17;16.33;;;-1.10;99.90;;;;;;5059086;28;20187;-85
2022/01/27 05:05:04;;;;;;;28.73;15.10;;;-1.10;99.90;;;;;;5081477;28;20219;-85
2022/01/27 05:07:30;;;;;;;27.60;16.20;;;-1.00;99.90;;;;;;5085529;28;20631;-86
2022/01/27 05:10:01;;;;;;;28.77;15.90;;;-1.10;99.90;;;;;;5073285;28;20219;-86
2022/01/27 05:12:44;;;;;;;27.00;15.50;;;-1.00;99.90;;;;;;5075981;28;20199;-85
2022/01/27 05:15:11;;;;;;;25.83;14.60;;;-1.00;99.90;;;;;;5093704;28;20171;-86
2022/01/27 05:17:37;;;;;;;28.03;16.70;;;-1.00;99.90;;;;;;5093431;28;20242;-85
2022/01/27 05:20:04;;;;;;;27.97;15.17;;;-1.00;99.90;;;;;;5091961;28;20191;-86
2022/01/27 05:22:31;;;;;;;24.30;14.07;;;-1.00;99.90;;;;;;5100339;28;20637;-85
2022/01/27 05:24:57;;;;;;;25.83;14.07;;;-1.00;99.90;;;;;;5098969;28;20213;-86
2022/01/27 05:27:24;;;;;;;28.30;15.60;;;-1.00;99.90;;;;;;5083004;28;20214;-87
2022/01/27 05:29:51;;;;;;;36.07;20.90;;;-1.10;99.90;;;;;;5089401;28;20237;-87
2022/01/27 05:32:18;;;;;;;41.10;23.33;;;-0.90;99.90;;;;;;5072379;28;20192;-87
2022/01/27 05:34:44;;;;;;;41.83;27.30;;;-0.90;99.90;;;;;;5067982;28;20196;-87
2022/01/27 05:37:10;;;;;;;27.77;16.77;;;-0.90;99.90;;;;;;5076134;28;20256;-87
2022/01/27 05:39:36;;;;;;;27.70;15.87;;;-0.90;99.90;;;;;;5057584;28;20209;-87
2022/01/27 05:42:02;;;;;;;30.10;16.47;;;-0.90;99.90;;;;;;5094410;28;20193;-87
2022/01/27 05:44:27;;;;;;;28.87;15.47;;;-0.90;99.90;;;;;;5100276;28;20184;-87
2022/01/27 05:46:53;;;;;;;27.73;14.93;;;-0.90;99.90;;;;;;5091082;28;20192;-87
2022/01/27 05:49:19;;;;;;;24.63;12.83;;;-0.90;99.90;;;;;;5094241;28;20236;-87
2022/01/27 05:51:44;;;;;;;24.97;13.43;;;-0.90;99.90;;;;;;5060946;28;20199;-87
2022/01/27 05:54:10;;;;;;;28.27;14.00;;;-0.90;99.90;;;;;;5106748;28;23112;-88
2022/01/27 05:56:36;;;;;;;28.37;16.37;;;-0.90;99.90;;;;;;5076998;28;20217;-87
2022/01/27 05:59:03;;;;;;;30.17;14.80;;;-1.00;99.90;;;;;;5087592;28;20222;-87
2022/01/27 06:01:29;;;;;;;30.53;16.27;;;-0.90;99.90;;;;;;5102467;28;20187;-87
2022/01/27 06:03:54;;;;;;;27.57;16.17;;;-0.90;99.90;;;;;;5078185;28;20186;-87
2022/01/27 06:06:20;;;;;;;25.23;15.37;;;-1.00;99.90;;;;;;5066285;28;20218;-87
2022/01/27 06:08:46;;;;;;;29.63;15.27;;;-1.00;99.90;;;;;;5070451;28;20195;-87
2022/01/27 06:11:12;;;;;;;25.50;15.20;;;-1.00;99.90;;;;;;5077920;28;20174;-87
2022/01/27 06:13:38;;;;;;;27.03;15.00;;;-1.00;99.90;;;;;;5083373;28;20187;-88
2022/01/27 06:16:09;;;;;;;26.73;14.93;;;-1.00;99.90;;;;;;5097780;28;20199;-88
2022/01/27 06:18:36;;;;;;;26.90;15.43;;;-1.00;99.90;;;;;;5090684;28;20211;-87
2022/01/27 06:21:04;;;;;;;25.83;15.70;;;-0.90;99.90;;;;;;5076658;28;20191;-87
2022/01/27 06:23:31;;;;;;;22.27;12.73;;;-0.90;99.90;;;;;;5096726;28;20178;-87
2022/01/27 06:25:58;;;;;;;26.27;13.80;;;-0.80;99.90;;;;;;5088564;28;20191;-87
2022/01/27 06:28:23;;;;;;;23.83;13.47;;;-0.90;99.90;;;;;;5075487;28;20215;-87
2022/01/27 06:30:49;;;;;;;25.20;12.80;;;-0.90;99.90;;;;;;5083055;28;20474;-88
2022/01/27 06:33:15;;;;;;;23.37;13.60;;;-1.10;99.90;;;;;;5106033;28;20736;-87
2022/01/27 06:35:41;;;;;;;19.80;11.17;;;-1.00;99.90;;;;;;5089640;28;20192;-86
2022/01/27 06:38:07;;;;;;;25.97;13.10;;;-1.10;99.90;;;;;;5100189;28;20268;-87
2022/01/27 06:40:32;;;;;;;26.17;14.67;;;-1.00;99.90;;;;;;5096432;28;20199;-87
2022/01/27 06:42:58;;;;;;;25.83;13.57;;;-1.10;99.90;;;;;;5092048;28;20186;-87
2022/01/27 06:45:24;;;;;;;22.33;12.47;;;-1.10;99.90;;;;;;5088740;28;20187;-86
2022/01/27 06:47:50;;;;;;;22.50;12.63;;;-1.10;99.90;;;;;;5098346;28;20229;-87
2022/01/27 06:50:15;;;;;;;19.13;11.70;;;-1.10;99.90;;;;;;5083987;28;20208;-87
2022/01/27 06:52:41;;;;;;;21.13;12.63;;;-1.10;99.90;;;;;;5106047;28;20194;-87
2022/01/27 06:55:09;;;;;;;25.23;13.07;;;-1.10;99.90;;;;;;5096102;28;20202;-87
2022/01/27 06:57:35;;;;;;;20.57;12.07;;;-1.10;99.90;;;;;;5092195;28;20219;-87
2022/01/27 07:00:01;;;;;;;23.27;14.07;;;-1.00;99.90;;;;;;5077734;28;20207;-87
2022/01/27 07:02:26;;;;;;;21.87;12.63;;;-1.10;99.90;;;;;;5063964;28;20535;-86
2022/01/27 07:04:52;;;;;;;21.17;13.63;;;-1.00;99.90;;;;;;5072119;28;20197;-86
2022/01/27 07:07:18;;;;;;;21.23;12.33;;;-1.00;99.90;;;;;;5079889;28;20726;-86
2022/01/27 07:09:44;;;;;;;23.90;12.77;;;-0.90;99.90;;;;;;5079561;28;20206;-86
2022/01/27 07:12:10;;;;;;;22.27;11.63;;;-0.90;99.90;;;;;;5069241;28;20202;-86
2022/01/27 07:14:36;;;;;;;17.60;10.50;;;-0.80;99.90;;;;;;5108738;28;20194;-86
2022/01/27 07:17:03;;;;;;;13.47;9.47;;;-0.90;99.90;;;;;;5103974;28;20222;-86
2022/01/27 07:19:29;;;;;;;17.30;11.03;;;-1.00;99.90;;;;;;5100498;28;20270;-87
2022/01/27 07:21:55;;;;;;;16.70;10.20;;;-0.90;99.90;;;;;;5099344;28;20437;-86
2022/01/27 07:24:21;;;;;;;19.27;10.93;;;-0.90;99.90;;;;;;5102693;28;20202;-86
2022/01/27 07:26:46;;;;;;;16.83;11.17;;;-1.00;99.90;;;;;;5106004;28;20201;-86
2022/01/27 07:29:12;;;;;;;16.13;9.93;;;-1.00;99.90;;;;;;5102516;28;20187;-87
2022/01/27 07:31:38;;;;;;;16.10;10.07;;;-1.10;99.90;;;;;;5102142;28;20194;-86
2022/01/27 07:34:03;;;;;;;14.47;8.57;;;-1.10;99.90;;;;;;5103531;28;20186;-87
2022/01/27 07:36:31;;;;;;;13.77;8.33;;;-1.00;99.90;;;;;;5105275;28;20197;-86
2022/01/27 07:38:57;;;;;;;14.70;8.70;;;-1.10;99.90;;;;;;5086934;28;20233;-86
2022/01/27 07:41:23;;;;;;;10.83;7.60;;;-0.90;99.90;;;;;;5101291;28;20260;-86
2022/01/27 07:43:49;;;;;;;13.47;8.40;;;-1.00;99.90;;;;;;5086943;28;20214;-86
2022/01/27 07:46:16;;;;;;;12.13;8.13;;;-1.00;99.90;;;;;;5106113;28;20207;-87
2022/01/27 07:48:42;;;;;;;13.23;8.23;;;-0.90;99.90;;;;;;5098834;28;20206;-86
2022/01/27 07:51:09;;;;;;;14.10;8.60;;;-0.90;99.90;;;;;;5103396;28;20222;-87
2022/01/27 07:53:36;;;;;;;14.13;8.43;;;-1.00;99.90;;;;;;5085038;28;20197;-87
2022/01/27 07:56:03;;;;;;;16.40;9.17;;;-0.90;99.90;;;;;;5103127;28;20328;-87
2022/01/27 07:58:31;;;;;;;15.30;9.20;;;-0.90;99.90;;;;;;5083453;28;20223;-87
2022/01/27 08:00:57;;;;;;;14.77;9.20;;;-1.00;99.90;;;;;;5104033;28;20233;-87
2022/01/27 08:03:22;;;;;;;14.90;9.40;;;-0.90;99.90;;;;;;5097009;28;20195;-87
2022/01/27 08:05:48;;;;;;;14.40;8.93;;;-0.90;99.90;;;;;;5104636;28;20282;-87
2022/01/27 08:08:14;;;;;;;12.83;9.50;;;-0.90;99.90;;;;;;5103462;28;20281;-87
2022/01/27 08:10:40;;;;;;;16.00;10.07;;;-0.90;99.90;;;;;;5101059;28;20611;-87
2022/01/27 08:13:07;;;;;;;14.27;9.03;;;-0.90;99.90;;;;;;5105099;28;20202;-87
2022/01/27 08:15:33;;;;;;;17.03;10.93;;;-1.00;99.90;;;;;;5102990;28;20183;-87
2022/01/27 08:17:59;;;;;;;15.63;10.47;;;-0.90;99.90;;;;;;5104374;28;20248;-87
2022/01/27 08:20:25;;;;;;;18.60;10.90;;;-0.90;99.90;;;;;;5105623;28;20210;-87
2022/01/27 08:22:53;;;;;;;20.27;11.30;;;-0.80;99.90;;;;;;5105173;28;20183;-87
2022/01/27 08:25:20;;;;;;;22.93;13.00;;;-0.90;99.90;;;;;;5098151;28;20174;-87
2022/01/27 08:27:49;;;;;;;26.83;13.57;;;-1.00;99.90;;;;;;5111160;28;20238;-87
2022/01/27 08:30:17;;;;;;;20.00;12.73;;;-1.00;99.90;;;;;;5088343;28;20186;-87
2022/01/27 08:32:57;;;;;;;20.90;11.80;;;-1.00;99.90;;;;;;5084144;28;20202;-86
2022/01/27 08:35:24;;;;;;;19.10;12.10;;;-0.90;99.90;;;;;;5106347;28;20221;-87
2022/01/27 08:37:50;;;;;;;20.90;12.40;;;-0.80;99.90;;;;;;5106350;28;20233;-87
2022/01/27 08:40:16;;;;;;;23.30;13.27;;;-0.80;99.90;;;;;;5090716;28;20657;-86
2022/01/27 08:42:43;;;;;;;22.33;14.07;;;-0.90;99.90;;;;;;5111178;28;20198;-86
2022/01/27 08:45:13;;;;;;;22.37;13.63;;;-0.90;99.90;;;;;;5097937;28;20568;-86
2022/01/27 08:47:39;;;;;;;25.43;14.83;;;-1.00;99.90;;;;;;5076340;28;20223;-87
2022/01/27 08:50:07;;;;;;;25.23;14.40;;;-0.90;99.90;;;;;;5109813;28;20225;-87
2022/01/27 08:52:33;;;;;;;26.00;16.00;;;-0.90;99.90;;;;;;5107559;28;20200;-86
2022/01/27 08:54:59;;;;;;;28.00;16.70;;;-1.00;99.90;;;;;;5088999;28;20196;-87
2022/01/27 08:57:25;;;;;;;32.53;17.63;;;-1.00;99.90;;;;;;5090445;28;20245;-86
2022/01/27 08:59:53;;;;;;;28.23;15.77;;;-1.10;99.90;;;;;;5110192;28;20799;-87
2022/01/27 09:02:20;;;;;;;32.70;16.10;;;-1.10;99.90;;;;;;5092658;28;20198;-86
2022/01/27 09:04:45;;;;;;;27.40;16.10;;;-1.10;99.90;;;;;;5107384;28;20197;-86
2022/01/27 09:07:11;;;;;;;33.23;18.17;;;-1.10;99.90;;;;;;5092630;28;20262;-86
2022/01/27 09:09:37;;;;;;;32.03;18.10;;;-1.00;99.90;;;;;;5112165;28;20213;-87
2022/01/27 09:12:03;;;;;;;34.97;18.73;;;-1.00;99.90;;;;;;5109488;28;20582;-87
2022/01/27 09:14:30;;;;;;;30.13;17.03;;;-0.90;99.90;;;;;;5113255;28;20224;-87
2022/01/27 09:16:57;;;;;;;38.90;20.40;;;-1.00;99.90;;;;;;5092520;28;20266;-86
2022/01/27 09:19:25;;;;;;;38.63;19.73;;;-0.90;99.90;;;;;;5107649;28;20207;-86
2022/01/27 09:21:53;;;;;;;31.33;17.77;;;-0.90;99.90;;;;;;5107986;28;20190;-86
2022/01/27 09:24:26;;;;;;;32.60;19.80;;;-0.80;99.90;;;;;;5109459;28;20190;-86
2022/01/27 09:26:59;;;;;;;39.27;18.17;;;-0.80;99.90;;;;;;5108254;28;20191;-86
2022/01/27 09:29:26;;;;;;;34.20;19.37;;;-0.80;99.90;;;;;;5108709;28;20256;-87
2022/01/27 09:31:52;;;;;;;37.80;19.60;;;-0.90;99.90;;;;;;5104607;28;20190;-86
2022/01/27 09:34:18;;;;;;;38.93;20.23;;;-0.80;99.90;;;;;;5092010;28;20183;-86
2022/01/27 09:36:44;;;;;;;34.47;18.37;;;-0.80;99.90;;;;;;5109792;28;20206;-86
2022/01/27 09:39:10;;;;;;;38.60;21.03;;;-0.70;99.90;;;;;;5093845;28;20448;-86
2022/01/27 09:41:39;;;;;;;40.57;22.27;;;-0.80;99.90;;;;;;5109461;28;20185;-86
2022/01/27 09:44:08;;;;;;;42.50;20.50;;;-0.80;99.90;;;;;;5112649;28;20270;-87
2022/01/27 09:46:35;;;;;;;38.03;20.37;;;-0.80;99.90;;;;;;5086015;28;20183;-87
2022/01/27 09:49:11;;;;;;;35.73;20.50;;;-0.70;99.90;;;;;;5093283;28;20697;-86
2022/01/27 09:51:40;;;;;;;40.93;22.80;;;-0.60;99.90;;;;;;5101957;28;20189;-86
2022/01/27 09:54:07;;;;;;;36.87;21.13;;;-0.70;99.90;;;;;;5104108;28;20190;-87
2022/01/27 09:56:32;;;;;;;37.50;20.97;;;-0.80;99.90;;;;;;5082418;28;20191;-86
2022/01/27 09:58:58;;;;;;;44.43;21.70;;;-0.70;99.90;;;;;;5103479;28;20753;-86
2022/01/27 10:01:24;;;;;;;44.77;22.20;;;-0.60;99.90;;;;;;5105342;28;20182;-87
2022/01/27 10:03:57;;;;;;;38.17;20.73;;;-0.60;99.90;;;;;;5099569;28;20198;-86
2022/01/27 10:06:28;;;;;;;36.47;18.10;;;-0.60;99.90;;;;;;5105701;28;20183;-86
2022/01/27 10:09:18;;;;;;;33.97;19.73;;;-0.50;99.90;;;;;;5109203;28;20206;-86
2022/01/27 10:11:49;;;;;;;38.23;21.47;;;-0.50;99.90;;;;;;5106663;28;20240;-86
2022/01/27 10:14:27;;;;;;;33.10;17.57;;;-0.50;99.90;;;;;;5087248;28;20190;-86
2022/01/27 10:16:59;;;;;;;38.03;19.67;;;-0.40;99.90;;;;;;5111480;28;20193;-87
2022/01/27 10:19:26;;;;;;;42.03;19.43;;;-0.40;99.90;;;;;;5110013;28;20297;-86
2022/01/27 10:22:01;;;;;;;32.20;19.97;;;-0.40;99.90;;;;;;5086723;28;20281;-86
2022/01/27 10:24:30;;;;;;;36.60;19.37;;;-0.40;99.90;;;;;;5109268;28;20177;-86
2022/01/27 10:27:28;;;;;;;31.40;18.77;;;-0.30;99.90;;;;;;5094254;28;20199;-87
2022/01/27 10:32:42;;;;;;;32.43;18.03;;;-0.30;99.90;;;;;;5109935;28;20201;-86
2022/01/27 10:35:10;;;;;;;31.17;17.43;;;-0.20;99.90;;;;;;5108159;28;20194;-86
2022/01/27 10:37:54;;;;;;;36.20;20.10;;;-0.20;99.90;;;;;;5107008;28;20221;-86
2022/01/27 10:40:41;;;;;;;35.20;20.07;;;-0.20;99.90;;;;;;5101315;28;20195;-86
2022/01/27 10:43:19;;;;;;;30.07;17.63;;;-0.20;99.90;;;;;;5089013;28;20195;-86
2022/01/27 10:46:29;;;;;;;35.00;18.80;;;-0.20;99.90;;;;;;5105832;28;20203;-86
2022/01/27 10:49:44;;;;;;;30.43;17.20;;;-0.20;99.90;;;;;;5104103;28;20222;-87
2022/01/27 10:51:51;;;;;;;32.00;17.47;;;-0.10;99.90;;;;;;5094787;28;20186;-87
2022/01/27 10:57:03;;;;;;;27.60;16.97;;;-0.10;99.90;;;;;;5099519;28;20209;-86
2022/01/27 10:59:32;;;;;;;29.80;16.93;;;-0.10;99.90;;;;;;5101388;28;20207;-86
2022/01/27 11:01:59;;;;;;;27.47;14.33;;;0.00;99.90;;;;;;5097711;28;20179;-86
2022/01/27 11:04:34;;;;;;;27.53;15.97;;;0.00;99.90;;;;;;5104185;28;20230;-86
2022/01/27 11:07:02;;;;;;;30.63;17.20;;;-0.10;99.90;;;;;;5106988;28;20214;-86
2022/01/27 11:09:33;;;;;;;26.13;16.03;;;-0.10;99.90;;;;;;5102596;28;20226;-87
2022/01/27 11:12:00;;;;;;;28.83;16.00;;;0.00;99.90;;;;;;5102950;28;20195;-86
2022/01/27 11:14:26;;;;;;;26.90;15.73;;;0.20;99.90;;;;;;5103987;28;20186;-87
2022/01/27 11:16:57;;;;;;;26.53;16.00;;;0.20;99.90;;;;;;5082193;28;20289;-87
2022/01/27 11:22:03;;;;;;;28.23;15.70;;;0.30;99.90;;;;;;5099980;28;20186;-86
2022/01/27 11:24:54;;;;;;;25.00;15.67;;;0.40;99.90;;;;;;5101105;28;20207;-87
2022/01/27 11:27:26;;;;;;;28.80;16.70;;;0.50;99.90;;;;;;5096010;28;20198;-86
2022/01/27 11:30:01;;;;;;;31.27;17.57;;;0.50;99.90;;;;;;5080431;28;20205;-87
2022/01/27 11:32:38;;;;;;;26.97;16.03;;;0.50;99.90;;;;;;5095701;28;20229;-86
2022/01/27 11:35:19;;;;;;;22.20;13.50;;;0.70;99.90;;;;;;5083775;28;20265;-86
2022/01/27 11:37:51;;;;;;;25.50;15.20;;;0.80;99.90;;;;;;5084139;28;20210;-86
2022/01/27 11:40:20;;;;;;;27.10;16.00;;;0.80;99.90;;;;;;5097334;28;20184;-86
2022/01/27 11:42:55;;;;;;;25.47;15.63;;;0.80;99.90;;;;;;5079882;28;20270;-87
2022/01/27 11:45:20;;;;;;;38.87;26.70;;;0.80;99.90;;;;;;5093142;28;20186;-89
2022/01/27 11:48:06;;;;;;;24.37;14.43;;;0.80;99.90;;;;;;5094051;28;20214;-89
2022/01/27 11:53:48;;;;;;;26.07;15.60;;;0.90;99.90;;;;;;5096866;28;20185;-89
2022/01/27 11:56:23;;;;;;;29.93;15.47;;;0.80;99.90;;;;;;5080614;28;20262;-89
2022/01/27 11:58:52;;;;;;;23.20;15.10;;;0.80;99.90;;;;;;5096606;28;20222;-89
2022/01/27 12:01:17;;;;;;;23.83;13.83;;;0.90;99.90;;;;;;5101447;28;20187;-89
2022/01/27 12:04:02;;;;;;;23.93;14.17;;;0.90;99.90;;;;;;5099710;28;20567;-89
2022/01/27 12:06:38;;;;;;;25.63;14.70;;;0.90;99.90;;;;;;5099678;28;20197;-89
2022/01/27 12:09:18;;;;;;;25.97;15.53;;;0.90;99.90;;;;;;5103232;28;20205;-89
2022/01/27 12:11:49;;;;;;;18.77;13.27;;;1.00;99.90;;;;;;5102742;28;20189;-89
2022/01/27 12:14:18;;;;;;;22.87;14.70;;;0.90;99.90;;;;;;5091990;28;20240;-90
2022/01/27 12:17:04;;;;;;;22.73;14.30;;;1.00;99.90;;;;;;5099462;28;20188;-89
2022/01/27 12:19:55;;;;;;;25.87;15.10;;;1.00;99.90;;;;;;5082559;28;20247;-90
2022/01/27 12:22:55;;;;;;;23.60;15.33;;;0.90;99.90;;;;;;5093533;28;20219;-88
2022/01/27 12:25:21;;;;;;;26.37;16.67;;;0.90;99.90;;;;;;5092165;28;20194;-89
2022/01/27 12:27:53;;;;;;;23.43;14.77;;;1.00;99.90;;;;;;5097173;28;20315;-89
2022/01/27 12:30:19;;;;;;;26.47;15.50;;;0.90;99.90;;;;;;5104779;28;20183;-89
2022/01/27 12:32:46;;;;;;;23.87;14.63;;;1.00;99.90;;;;;;5103652;28;20179;-89
2022/01/27 12:35:14;;;;;;;21.57;14.03;;;0.90;99.90;;;;;;5094333;28;20188;-88
2022/01/27 12:37:48;;;;;;;22.47;14.70;;;1.00;99.90;;;;;;5101456;28;20538;-89
2022/01/27 12:40:30;;;;;;;21.60;14.93;;;1.00;99.90;;;;;;5096646;28;20217;-89
2022/01/27 12:43:12;;;;;;;22.53;14.67;;;1.00;99.90;;;;;;5098508;28;20190;-88
2022/01/27 12:45:40;;;;;;;21.33;15.10;;;1.00;99.90;;;;;;5101000;28;20668;-89
2022/01/27 12:48:14;;;;;;;20.07;14.03;;;1.10;99.90;;;;;;5100553;28;20195;-88
2022/01/27 12:50:42;;;;;;;21.27;13.90;;;1.20;99.90;;;;;;5099534;28;20178;-89
2022/01/27 12:53:11;;;;;;;22.37;14.57;;;1.30;99.90;;;;;;5081496;28;20197;-89
2022/01/27 12:55:40;;;;;;;23.13;14.73;;;1.40;99.90;;;;;;5084488;28;20185;-88
2022/01/27 12:58:14;;;;;;;21.37;14.60;;;1.40;99.90;;;;;;5083852;28;20218;-89
2022/01/27 13:00:45;;;;;;;25.43;14.63;;;1.40;99.90;;;;;;5094223;28;20174;-89
2022/01/27 13:03:11;;;;;;;23.03;14.13;;;1.30;99.90;;;;;;5099259;28;20206;-89
2022/01/27 13:05:49;;;;;;;26.17;16.07;;;1.70;99.90;;;;;;5064386;28;20184;-89
2022/01/27 13:08:30;;;;;;;20.33;14.97;;;1.70;99.80;;;;;;5080038;28;20353;-90
2022/01/27 13:11:01;;;;;;;19.93;13.37;;;1.70;98.90;;;;;;5051206;28;20215;-88
2022/01/27 13:13:34;;;;;;;21.57;14.60;;;1.80;99.00;;;;;;5081485;28;20190;-89
2022/01/27 13:16:22;;;;;;;20.90;13.23;;;1.70;99.90;;;;;;5052035;28;21217;-89
2022/01/27 13:19:03;;;;;;;21.90;14.70;;;1.60;99.90;;;;;;5066983;28;20800;-89
2022/01/27 13:21:34;;;;;;;20.67;14.20;;;1.60;99.90;;;;;;5078960;28;20243;-88
2022/01/27 13:24:07;;;;;;;21.33;14.23;;;1.70;99.90;;;;;;5094522;28;20262;-88
2022/01/27 13:26:33;;;;;;;22.40;14.70;;;1.60;99.90;;;;;;5079197;28;20258;-88
2022/01/27 13:28:59;;;;;;;21.27;13.63;;;1.80;99.90;;;;;;5081363;28;20240;-88
2022/01/27 13:31:26;;;;;;;18.43;13.13;;;1.80;99.30;;;;;;5080944;28;20294;-88
2022/01/27 13:33:52;;;;;;;23.47;15.27;;;1.90;99.30;;;;;;5058603;28;20199;-89
2022/01/27 13:36:27;;;;;;;18.57;13.20;;;1.70;99.90;;;;;;5089021;28;20213;-88